»·PEaware :: N973SE KBFL-KSBP

N973SE :: KBFL-KSBP

FLIGHT INFORMATION

Flight Status: Arrived
Operator: Privately registered:
United States
More flights under this callsign
Pilot: Stig E. (4778)
Aircraft: Unknown
(DA62)
More flights by this aircraft type
Origin: KBFL Meadows
United States
Destination: KSBP San Luis Co Regl
United States
More flights between these airports :: More routes between these airports
Route: FLW
File this flight plan on PilotEdge
Remarks:
Altitude:
(Current/Filed)
6,500ft
Speed:
(Current/Filed)
170kts
Departed: 11-Jul-18 11:47 PM
Arrived: 12-Jul-18 12:23 AM
Distance/Time
Traveled:
78nm/0:36
Distance/Time
To Go:
Arrived

Flight Plot

Page will automatically refresh every two minutes.


Map Options




Map Legend


Flown Route
Filed Route
Departure Airport
Arrival Airport
Navaid (VOR, NDB)
Fix

Horizontal Profiles

Position Reports

Time Latitude Longitude Heading Altitude Ground
Speed
11-Jul-18 23:38 35.435704 -119.052043 180 497ft 0kts
11-Jul-18 23:39 35.435704 -119.052043 180 497ft 0kts
11-Jul-18 23:40 35.435704 -119.052043 180 497ft 0kts
11-Jul-18 23:41 35.435704 -119.052043 180 497ft 0kts
11-Jul-18 23:42 35.435280 -119.053672 221 497ft 8kts
11-Jul-18 23:43 35.434709 -119.054406 218 497ft 0kts
11-Jul-18 23:44 35.434709 -119.054406 218 497ft 0kts
11-Jul-18 23:45 35.433107 -119.052945 135 497ft 23kts
11-Jul-18 23:46 35.426315 -119.044828 141 497ft 16kts
11-Jul-18 23:47 35.425471 -119.045439 265 497ft 6kts
11-Jul-18 23:48 35.434986 -119.057626 320 684ft 93kts
11-Jul-18 23:49 35.452815 -119.081935 312 1969ft 95kts
11-Jul-18 23:50 35.470155 -119.107411 312 3153ft 100kts
11-Jul-18 23:51 35.461120 -119.137895 233 4329ft 111kts
11-Jul-18 23:52 35.442674 -119.168524 236 5518ft 113kts
11-Jul-18 23:53 35.424803 -119.201309 237 6503ft 132kts
11-Jul-18 23:54 35.406040 -119.237517 238 6507ft 165kts
11-Jul-18 23:55 35.381619 -119.286031 238 6502ft 173kts
11-Jul-18 23:56 35.357114 -119.335351 238 6500ft 175kts
11-Jul-18 23:57 35.331908 -119.386229 238 6500ft 175kts
11-Jul-18 23:58 35.306589 -119.437356 238 6500ft 175kts
11-Jul-18 23:59 35.281275 -119.488434 238 6500ft 175kts
12-Jul-18 00:00 35.256148 -119.539056 239 6504ft 175kts
12-Jul-18 00:01 35.231267 -119.589089 239 6523ft 173kts
12-Jul-18 00:02 35.206441 -119.638961 239 6548ft 172kts
12-Jul-18 00:03 35.182130 -119.687308 237 6572ft 165kts
12-Jul-18 00:04 35.158105 -119.735072 237 6594ft 165kts
12-Jul-18 00:05 35.134101 -119.782972 237 6609ft 165kts
12-Jul-18 00:06 35.109616 -119.830401 234 6609ft 165kts
12-Jul-18 00:07 35.089850 -119.879721 270 6610ft 166kts
12-Jul-18 00:08 35.092285 -119.936235 272 6568ft 165kts
12-Jul-18 00:09 35.099692 -119.989995 277 6148ft 165kts
12-Jul-18 00:10 35.105806 -120.045547 276 5724ft 165kts
12-Jul-18 00:11 35.110779 -120.100910 275 5324ft 164kts
12-Jul-18 00:12 35.115259 -120.155914 275 4933ft 163kts
12-Jul-18 00:13 35.119538 -120.210728 275 4551ft 162kts
12-Jul-18 00:14 35.123692 -120.264964 275 4509ft 162kts
12-Jul-18 00:15 35.127815 -120.319335 275 3894ft 161kts
12-Jul-18 00:16 35.131858 -120.373217 275 3159ft 159kts
12-Jul-18 00:17 35.135828 -120.426503 275 2441ft 156kts
12-Jul-18 00:18 35.143691 -120.477650 303 1749ft 153kts
12-Jul-18 00:19 35.164558 -120.515692 304 1706ft 110kts
12-Jul-18 00:20 35.181502 -120.544803 307 1379ft 103kts
12-Jul-18 00:21 35.198112 -120.572651 306 1102ft 100kts
12-Jul-18 00:22 35.213862 -120.600174 306 729ft 93kts
12-Jul-18 00:23 35.228485 -120.625200 308 446ft 88kts
12-Jul-18 00:24 35.237506 -120.639835 25 191ft 12kts
12-Jul-18 00:25 35.238778 -120.639436 203 192ft 0kts
12-Jul-18 00:26 35.238778 -120.639436 203 192ft 0kts
12-Jul-18 00:27 35.238778 -120.639436 203 192ft 0kts

Navigation Log

Ident Type
Flight plan parsing failed, navigation log unavailable